sensor_id;sensor_type;location;lat;lon;timestamp;temperature;humidity
3380;DHT22;1703;51.964;7.642;2024-01-16T00:00:23;1.50;99.90
3380;DHT22;1703;51.964;7.642;2024-01-16T00:02:51;1.60;99.90
3380;DHT22;1703;51.964;7.642;2024-01-16T00:05:18;1.60;99.90
3380;DHT22;1703;51.964;7.642;2024-01-16T00:07:45;1.70;99.90
3380;DHT22;1703;51.964;7.642;2024-01-16T00:10:11;1.70;99.90
3380;DHT22;1703;51.964;7.642;2024-01-16T00:12:38;1.60;99.90
3380;DHT22;1703;51.964;7.642;2024-01-16T00:15:07;1.60;99.90
3380;DHT22;1703;51.964;7.642;2024-01-16T00:17:34;1.60;99.90
3380;DHT22;1703;51.964;7.642;2024-01-16T00:20:02;1.60;99.90
3380;DHT22;1703;51.964;7.642;2024-01-16T00:22:30;1.60;99.90
3380;DHT22;1703;51.964;7.642;2024-01-16T00:24:57;1.60;99.90
3380;DHT22;1703;51.964;7.642;2024-01-16T00:27:25;1.60;99.90
3380;DHT22;1703;51.964;7.642;2024-01-16T00:29:51;1.60;99.90
3380;DHT22;1703;51.964;7.642;2024-01-16T00:32:18;1.70;99.90
3380;DHT22;1703;51.964;7.642;2024-01-16T00:34:45;1.60;99.90
3380;DHT22;1703;51.964;7.642;2024-01-16T00:37:13;1.60;99.90
3380;DHT22;1703;51.964;7.642;2024-01-16T00:39:40;1.60;99.90
3380;DHT22;1703;51.964;7.642;2024-01-16T00:42:07;1.60;99.90
3380;DHT22;1703;51.964;7.642;2024-01-16T00:44:34;1.60;99.90
3380;DHT22;1703;51.964;7.642;2024-01-16T00:47:01;1.60;99.90
3380;DHT22;1703;51.964;7.642;2024-01-16T00:49:28;1.60;99.90
3380;DHT22;1703;51.964;7.642;2024-01-16T00:51:55;1.50;99.90
3380;DHT22;1703;51.964;7.642;2024-01-16T00:54:23;1.50;99.90
3380;DHT22;1703;51.964;7.642;2024-01-16T00:56:50;1.50;99.90
3380;DHT22;1703;51.964;7.642;2024-01-16T00:59:21;1.50;99.90
3380;DHT22;1703;51.964;7.642;2024-01-16T01:01:47;1.60;99.90
3380;DHT22;1703;51.964;7.642;2024-01-16T01:04:14;1.50;99.90
3380;DHT22;1703;51.964;7.642;2024-01-16T01:06:41;1.50;99.90
3380;DHT22;1703;51.964;7.642;2024-01-16T01:09:08;1.50;99.90
3380;DHT22;1703;51.964;7.642;2024-01-16T01:11:38;1.40;99.90
3380;DHT22;1703;51.964;7.642;2024-01-16T01:14:05;1.40;99.90
3380;DHT22;1703;51.964;7.642;2024-01-16T01:16:32;1.40;99.90
3380;DHT22;1703;51.964;7.642;2024-01-16T01:18:59;1.40;99.90
3380;DHT22;1703;51.964;7.642;2024-01-16T01:21:26;1.40;99.90
3380;DHT22;1703;51.964;7.642;2024-01-16T01:23:53;1.30;99.90
3380;DHT22;1703;51.964;7.642;2024-01-16T01:26:19;1.30;99.90
3380;DHT22;1703;51.964;7.642;2024-01-16T01:28:47;1.30;99.90
3380;DHT22;1703;51.964;7.642;2024-01-16T01:31:14;1.30;99.90
3380;DHT22;1703;51.964;7.642;2024-01-16T01:33:41;1.30;99.90
3380;DHT22;1703;51.964;7.642;2024-01-16T01:36:08;1.30;99.90
3380;DHT22;1703;51.964;7.642;2024-01-16T01:38:35;1.30;99.90
3380;DHT22;1703;51.964;7.642;2024-01-16T01:41:02;1.30;99.90
3380;DHT22;1703;51.964;7.642;2024-01-16T01:43:29;1.30;99.90
3380;DHT22;1703;51.964;7.642;2024-01-16T01:46:09;1.30;99.90
3380;DHT22;1703;51.964;7.642;2024-01-16T01:48:37;1.30;99.90
3380;DHT22;1703;51.964;7.642;2024-01-16T01:51:05;1.30;99.90
3380;DHT22;1703;51.964;7.642;2024-01-16T01:53:33;1.30;99.90
3380;DHT22;1703;51.964;7.642;2024-01-16T01:56:03;1.20;99.90
3380;DHT22;1703;51.964;7.642;2024-01-16T01:58:30;1.30;99.90
3380;DHT22;1703;51.964;7.642;2024-01-16T02:00:57;1.30;99.90
3380;DHT22;1703;51.964;7.642;2024-01-16T02:03:27;1.30;99.90
3380;DHT22;1703;51.964;7.642;2024-01-16T02:05:55;1.30;99.90
3380;DHT22;1703;51.964;7.642;2024-01-16T02:08:22;1.40;99.90
3380;DHT22;1703;51.964;7.642;2024-01-16T02:10:50;1.40;99.90
3380;DHT22;1703;51.964;7.642;2024-01-16T02:13:18;1.40;99.90
3380;DHT22;1703;51.964;7.642;2024-01-16T02:15:49;1.40;99.90
3380;DHT22;1703;51.964;7.642;2024-01-16T02:18:16;1.40;99.90
3380;DHT22;1703;51.964;7.642;2024-01-16T02:20:44;1.40;99.90
3380;DHT22;1703;51.964;7.642;2024-01-16T02:23:14;1.30;99.90
3380;DHT22;1703;51.964;7.642;2024-01-16T02:25:43;1.30;99.90
3380;DHT22;1703;51.964;7.642;2024-01-16T02:28:10;1.20;99.90
3380;DHT22;1703;51.964;7.642;2024-01-16T02:30:38;1.20;99.90
3380;DHT22;1703;51.964;7.642;2024-01-16T02:33:06;1.20;99.90
3380;DHT22;1703;51.964;7.642;2024-01-16T02:35:33;1.20;99.90
3380;DHT22;1703;51.964;7.642;2024-01-16T02:38:00;1.20;99.90
3380;DHT22;1703;51.964;7.642;2024-01-16T02:40:27;1.10;99.90
3380;DHT22;1703;51.964;7.642;2024-01-16T02:42:55;1.20;99.90
3380;DHT22;1703;51.964;7.642;2024-01-16T02:45:22;1.20;99.90
3380;DHT22;1703;51.964;7.642;2024-01-16T02:47:49;1.20;99.90
3380;DHT22;1703;51.964;7.642;2024-01-16T02:50:16;1.10;99.90
3380;DHT22;1703;51.964;7.642;2024-01-16T02:52:42;1.10;99.90
3380;DHT22;1703;51.964;7.642;2024-01-16T02:55:09;1.10;99.90
3380;DHT22;1703;51.964;7.642;2024-01-16T02:57:36;1.10;99.90
3380;DHT22;1703;51.964;7.642;2024-01-16T03:00:05;1.10;99.90
3380;DHT22;1703;51.964;7.642;2024-01-16T03:02:33;1.10;99.90
3380;DHT22;1703;51.964;7.642;2024-01-16T03:05:01;1.10;99.90
3380;DHT22;1703;51.964;7.642;2024-01-16T03:07:29;1.10;99.90
3380;DHT22;1703;51.964;7.642;2024-01-16T03:09:55;1.10;99.90
3380;DHT22;1703;51.964;7.642;2024-01-16T03:12:22;1.10;99.90
3380;DHT22;1703;51.964;7.642;2024-01-16T03:14:49;1.10;99.90
3380;DHT22;1703;51.964;7.642;2024-01-16T03:17:17;1.20;99.90
3380;DHT22;1703;51.964;7.642;2024-01-16T03:19:44;1.20;99.90
3380;DHT22;1703;51.964;7.642;2024-01-16T03:22:10;1.20;99.90
3380;DHT22;1703;51.964;7.642;2024-01-16T03:24:38;1.20;99.90
3380;DHT22;1703;51.964;7.642;2024-01-16T03:27:05;1.20;99.90
3380;DHT22;1703;51.964;7.642;2024-01-16T03:29:31;1.20;99.90
3380;DHT22;1703;51.964;7.642;2024-01-16T03:31:59;1.20;99.90
3380;DHT22;1703;51.964;7.642;2024-01-16T03:34:27;1.20;99.90
3380;DHT22;1703;51.964;7.642;2024-01-16T03:36:54;1.20;99.90
3380;DHT22;1703;51.964;7.642;2024-01-16T03:39:21;1.20;99.90
3380;DHT22;1703;51.964;7.642;2024-01-16T03:41:48;1.20;99.90
3380;DHT22;1703;51.964;7.642;2024-01-16T03:44:14;1.20;99.90
3380;DHT22;1703;51.964;7.642;2024-01-16T03:46:41;1.20;99.90
3380;DHT22;1703;51.964;7.642;2024-01-16T03:49:08;1.30;99.90
3380;DHT22;1703;51.964;7.642;2024-01-16T03:51:36;1.30;99.90
3380;DHT22;1703;51.964;7.642;2024-01-16T03:54:03;1.20;99.90
3380;DHT22;1703;51.964;7.642;2024-01-16T03:56:30;1.30;99.90
3380;DHT22;1703;51.964;7.642;2024-01-16T03:58:56;1.30;99.90
3380;DHT22;1703;51.964;7.642;2024-01-16T04:01:30;1.20;99.90
3380;DHT22;1703;51.964;7.642;2024-01-16T04:03:57;1.30;99.90
3380;DHT22;1703;51.964;7.642;2024-01-16T04:06:24;1.30;99.90
3380;DHT22;1703;51.964;7.642;2024-01-16T04:08:53;1.30;99.90
3380;DHT22;1703;51.964;7.642;2024-01-16T04:11:20;1.30;99.90
3380;DHT22;1703;51.964;7.642;2024-01-16T04:13:47;1.30;99.90
3380;DHT22;1703;51.964;7.642;2024-01-16T04:16:13;1.30;99.90
3380;DHT22;1703;51.964;7.642;2024-01-16T04:18:43;1.30;99.90
3380;DHT22;1703;51.964;7.642;2024-01-16T04:21:10;1.30;99.90
3380;DHT22;1703;51.964;7.642;2024-01-16T04:23:37;1.20;99.90
3380;DHT22;1703;51.964;7.642;2024-01-16T04:26:05;1.20;99.90
3380;DHT22;1703;51.964;7.642;2024-01-16T04:28:33;1.30;99.90
3380;DHT22;1703;51.964;7.642;2024-01-16T04:31:00;1.30;99.90
3380;DHT22;1703;51.964;7.642;2024-01-16T04:33:27;1.30;99.90
3380;DHT22;1703;51.964;7.642;2024-01-16T04:35:54;1.30;99.90
3380;DHT22;1703;51.964;7.642;2024-01-16T04:38:21;1.30;99.90
3380;DHT22;1703;51.964;7.642;2024-01-16T04:40:48;1.30;99.90
3380;DHT22;1703;51.964;7.642;2024-01-16T04:43:16;1.30;99.90
3380;DHT22;1703;51.964;7.642;2024-01-16T04:45:43;1.40;99.90
3380;DHT22;1703;51.964;7.642;2024-01-16T04:48:10;1.40;99.90
3380;DHT22;1703;51.964;7.642;2024-01-16T04:50:37;1.40;99.90
3380;DHT22;1703;51.964;7.642;2024-01-16T04:53:04;1.40;99.90
3380;DHT22;1703;51.964;7.642;2024-01-16T04:55:30;1.40;99.90
3380;DHT22;1703;51.964;7.642;2024-01-16T04:57:57;1.40;99.90
3380;DHT22;1703;51.964;7.642;2024-01-16T05:00:26;1.30;99.90
3380;DHT22;1703;51.964;7.642;2024-01-16T05:02:53;1.30;99.90
3380;DHT22;1703;51.964;7.642;2024-01-16T05:05:20;1.30;99.90
3380;DHT22;1703;51.964;7.642;2024-01-16T05:07:47;1.30;99.90
3380;DHT22;1703;51.964;7.642;2024-01-16T05:10:14;1.30;99.90
3380;DHT22;1703;51.964;7.642;2024-01-16T05:12:41;1.30;99.90
3380;DHT22;1703;51.964;7.642;2024-01-16T05:15:09;1.30;99.90
3380;DHT22;1703;51.964;7.642;2024-01-16T05:17:38;1.30;99.90
3380;DHT22;1703;51.964;7.642;2024-01-16T05:20:05;1.30;99.90
3380;DHT22;1703;51.964;7.642;2024-01-16T05:22:32;1.30;99.90
3380;DHT22;1703;51.964;7.642;2024-01-16T05:24:59;1.30;99.90
3380;DHT22;1703;51.964;7.642;2024-01-16T05:27:26;1.30;99.90
3380;DHT22;1703;51.964;7.642;2024-01-16T05:29:53;1.30;99.90
3380;DHT22;1703;51.964;7.642;2024-01-16T05:32:20;1.30;99.90
3380;DHT22;1703;51.964;7.642;2024-01-16T05:34:48;1.30;99.90
3380;DHT22;1703;51.964;7.642;2024-01-16T05:37:15;1.30;99.90
3380;DHT22;1703;51.964;7.642;2024-01-16T05:39:42;1.30;99.90
3380;DHT22;1703;51.964;7.642;2024-01-16T05:42:09;1.30;99.90
3380;DHT22;1703;51.964;7.642;2024-01-16T05:44:36;1.30;99.90
3380;DHT22;1703;51.964;7.642;2024-01-16T05:47:04;1.30;99.90
3380;DHT22;1703;51.964;7.642;2024-01-16T05:49:31;1.40;99.90
3380;DHT22;1703;51.964;7.642;2024-01-16T05:51:59;1.40;99.90
3380;DHT22;1703;51.964;7.642;2024-01-16T05:54:27;1.40;99.90
3380;DHT22;1703;51.964;7.642;2024-01-16T05:56:54;1.40;99.90
3380;DHT22;1703;51.964;7.642;2024-01-16T05:59:21;1.40;99.90
3380;DHT22;1703;51.964;7.642;2024-01-16T06:01:48;1.40;99.90
3380;DHT22;1703;51.964;7.642;2024-01-16T06:04:15;1.40;99.90
3380;DHT22;1703;51.964;7.642;2024-01-16T06:06:42;1.40;99.90
3380;DHT22;1703;51.964;7.642;2024-01-16T06:09:12;1.50;99.90
3380;DHT22;1703;51.964;7.642;2024-01-16T06:11:40;1.50;99.90
3380;DHT22;1703;51.964;7.642;2024-01-16T06:14:07;1.40;99.90
3380;DHT22;1703;51.964;7.642;2024-01-16T06:16:33;1.40;99.90
3380;DHT22;1703;51.964;7.642;2024-01-16T06:19:00;1.40;99.90
3380;DHT22;1703;51.964;7.642;2024-01-16T06:21:27;1.40;99.90
3380;DHT22;1703;51.964;7.642;2024-01-16T06:23:54;1.40;99.90
3380;DHT22;1703;51.964;7.642;2024-01-16T06:26:22;1.40;99.90
3380;DHT22;1703;51.964;7.642;2024-01-16T06:28:49;1.40;99.90
3380;DHT22;1703;51.964;7.642;2024-01-16T06:31:16;1.60;99.90
3380;DHT22;1703;51.964;7.642;2024-01-16T06:33:43;1.50;99.90
3380;DHT22;1703;51.964;7.642;2024-01-16T06:36:10;1.50;99.90
3380;DHT22;1703;51.964;7.642;2024-01-16T06:38:38;1.50;99.90
3380;DHT22;1703;51.964;7.642;2024-01-16T06:41:05;1.50;99.90
3380;DHT22;1703;51.964;7.642;2024-01-16T06:43:33;1.50;99.90
3380;DHT22;1703;51.964;7.642;2024-01-16T06:46:00;1.50;99.90
3380;DHT22;1703;51.964;7.642;2024-01-16T06:48:27;1.50;99.90
3380;DHT22;1703;51.964;7.642;2024-01-16T06:50:53;1.50;99.90
3380;DHT22;1703;51.964;7.642;2024-01-16T06:53:21;1.50;99.90
3380;DHT22;1703;51.964;7.642;2024-01-16T06:55:48;1.50;99.90
3380;DHT22;1703;51.964;7.642;2024-01-16T06:58:15;1.40;99.90
3380;DHT22;1703;51.964;7.642;2024-01-16T07:00:43;1.40;99.90
3380;DHT22;1703;51.964;7.642;2024-01-16T07:03:11;1.40;99.90
3380;DHT22;1703;51.964;7.642;2024-01-16T07:05:38;1.70;99.90
3380;DHT22;1703;51.964;7.642;2024-01-16T07:08:06;1.90;99.90
3380;DHT22;1703;51.964;7.642;2024-01-16T07:10:33;1.90;99.90
3380;DHT22;1703;51.964;7.642;2024-01-16T07:13:01;2.00;99.90
3380;DHT22;1703;51.964;7.642;2024-01-16T07:15:28;2.00;99.90
3380;DHT22;1703;51.964;7.642;2024-01-16T07:17:56;1.80;99.90
3380;DHT22;1703;51.964;7.642;2024-01-16T07:20:23;1.80;99.90
3380;DHT22;1703;51.964;7.642;2024-01-16T07:22:49;1.70;99.90
3380;DHT22;1703;51.964;7.642;2024-01-16T07:25:17;1.60;99.90
3380;DHT22;1703;51.964;7.642;2024-01-16T07:27:44;1.60;99.90
3380;DHT22;1703;51.964;7.642;2024-01-16T07:30:14;1.50;99.90
3380;DHT22;1703;51.964;7.642;2024-01-16T07:32:41;1.50;99.90
3380;DHT22;1703;51.964;7.642;2024-01-16T07:35:09;1.50;99.90
3380;DHT22;1703;51.964;7.642;2024-01-16T07:37:36;1.50;99.90
3380;DHT22;1703;51.964;7.642;2024-01-16T07:40:04;1.50;99.90
3380;DHT22;1703;51.964;7.642;2024-01-16T07:42:32;1.40;99.90
3380;DHT22;1703;51.964;7.642;2024-01-16T07:45:00;1.40;99.90
3380;DHT22;1703;51.964;7.642;2024-01-16T07:47:29;1.40;99.90
3380;DHT22;1703;51.964;7.642;2024-01-16T07:49:57;1.40;99.90
3380;DHT22;1703;51.964;7.642;2024-01-16T07:52:27;1.50;99.90
3380;DHT22;1703;51.964;7.642;2024-01-16T07:54:54;1.40;99.90
3380;DHT22;1703;51.964;7.642;2024-01-16T07:57:21;1.50;99.90
3380;DHT22;1703;51.964;7.642;2024-01-16T07:59:48;1.40;99.90
3380;DHT22;1703;51.964;7.642;2024-01-16T08:02:15;1.50;99.90
3380;DHT22;1703;51.964;7.642;2024-01-16T08:04:42;1.50;99.90
3380;DHT22;1703;51.964;7.642;2024-01-16T08:07:09;1.50;99.90
3380;DHT22;1703;51.964;7.642;2024-01-16T08:09:37;1.50;99.90
3380;DHT22;1703;51.964;7.642;2024-01-16T08:12:05;1.50;99.90
3380;DHT22;1703;51.964;7.642;2024-01-16T08:14:31;1.50;99.90
3380;DHT22;1703;51.964;7.642;2024-01-16T08:16:58;1.50;99.90
3380;DHT22;1703;51.964;7.642;2024-01-16T08:19:25;1.50;99.90
3380;DHT22;1703;51.964;7.642;2024-01-16T08:21:52;1.50;99.90
3380;DHT22;1703;51.964;7.642;2024-01-16T08:24:19;1.50;99.90
3380;DHT22;1703;51.964;7.642;2024-01-16T08:26:47;1.50;99.90
3380;DHT22;1703;51.964;7.642;2024-01-16T08:29:14;1.50;99.90
3380;DHT22;1703;51.964;7.642;2024-01-16T08:31:40;1.50;99.90
3380;DHT22;1703;51.964;7.642;2024-01-16T08:34:07;1.60;99.90
3380;DHT22;1703;51.964;7.642;2024-01-16T08:36:34;1.60;99.90
3380;DHT22;1703;51.964;7.642;2024-01-16T08:39:01;1.60;99.90
3380;DHT22;1703;51.964;7.642;2024-01-16T08:41:29;1.60;99.90
3380;DHT22;1703;51.964;7.642;2024-01-16T08:43:57;1.60;99.90
3380;DHT22;1703;51.964;7.642;2024-01-16T08:46:24;1.70;99.90
3380;DHT22;1703;51.964;7.642;2024-01-16T08:48:51;1.70;99.90
3380;DHT22;1703;51.964;7.642;2024-01-16T08:51:18;1.70;99.90
3380;DHT22;1703;51.964;7.642;2024-01-16T08:53:44;1.70;99.90
3380;DHT22;1703;51.964;7.642;2024-01-16T08:56:11;1.70;99.90
3380;DHT22;1703;51.964;7.642;2024-01-16T08:58:38;1.70;99.90
3380;DHT22;1703;51.964;7.642;2024-01-16T09:01:07;1.80;99.90
3380;DHT22;1703;51.964;7.642;2024-01-16T09:03:36;1.80;99.90
3380;DHT22;1703;51.964;7.642;2024-01-16T09:06:03;1.80;99.90
3380;DHT22;1703;51.964;7.642;2024-01-16T09:08:30;1.90;99.90
3380;DHT22;1703;51.964;7.642;2024-01-16T09:10:57;1.90;99.90
3380;DHT22;1703;51.964;7.642;2024-01-16T09:13:24;1.90;99.90
3380;DHT22;1703;51.964;7.642;2024-01-16T09:15:51;2.00;99.90
3380;DHT22;1703;51.964;7.642;2024-01-16T09:18:19;2.00;99.90
3380;DHT22;1703;51.964;7.642;2024-01-16T09:20:46;1.90;99.90
3380;DHT22;1703;51.964;7.642;2024-01-16T09:23:14;1.90;99.90
3380;DHT22;1703;51.964;7.642;2024-01-16T09:25:40;1.80;99.90
3380;DHT22;1703;51.964;7.642;2024-01-16T09:28:07;1.80;99.90
3380;DHT22;1703;51.964;7.642;2024-01-16T09:30:34;1.80;99.90
3380;DHT22;1703;51.964;7.642;2024-01-16T09:33:01;1.90;99.90
3380;DHT22;1703;51.964;7.642;2024-01-16T09:35:31;1.80;99.90
3380;DHT22;1703;51.964;7.642;2024-01-16T09:37:58;1.90;99.90
3380;DHT22;1703;51.964;7.642;2024-01-16T09:40:25;2.10;99.90
3380;DHT22;1703;51.964;7.642;2024-01-16T09:42:52;2.20;99.90
3380;DHT22;1703;51.964;7.642;2024-01-16T09:45:20;2.20;99.90
3380;DHT22;1703;51.964;7.642;2024-01-16T09:47:48;2.10;99.90
3380;DHT22;1703;51.964;7.642;2024-01-16T09:50:16;2.10;99.90
3380;DHT22;1703;51.964;7.642;2024-01-16T09:52:45;2.10;99.90
3380;DHT22;1703;51.964;7.642;2024-01-16T09:55:12;2.00;99.90
3380;DHT22;1703;51.964;7.642;2024-01-16T09:57:40;2.00;99.90
3380;DHT22;1703;51.964;7.642;2024-01-16T10:00:09;1.90;99.90
3380;DHT22;1703;51.964;7.642;2024-01-16T10:02:39;1.90;99.90
3380;DHT22;1703;51.964;7.642;2024-01-16T10:05:07;1.90;99.90
3380;DHT22;1703;51.964;7.642;2024-01-16T10:07:36;1.90;99.90
3380;DHT22;1703;51.964;7.642;2024-01-16T10:10:06;1.90;99.90
3380;DHT22;1703;51.964;7.642;2024-01-16T10:12:37;2.00;99.90
3380;DHT22;1703;51.964;7.642;2024-01-16T10:15:06;2.00;99.90
3380;DHT22;1703;51.964;7.642;2024-01-16T10:17:37;2.00;99.90
3380;DHT22;1703;51.964;7.642;2024-01-16T10:20:05;2.10;99.90
3380;DHT22;1703;51.964;7.642;2024-01-16T10:22:32;2.20;99.90
3380;DHT22;1703;51.964;7.642;2024-01-16T10:25:08;2.10;99.90
3380;DHT22;1703;51.964;7.642;2024-01-16T10:27:38;2.00;99.90
3380;DHT22;1703;51.964;7.642;2024-01-16T10:30:07;1.90;99.90
3380;DHT22;1703;51.964;7.642;2024-01-16T10:32:35;1.90;99.90
3380;DHT22;1703;51.964;7.642;2024-01-16T10:35:05;1.90;99.90
3380;DHT22;1703;51.964;7.642;2024-01-16T10:37:41;1.90;99.90
3380;DHT22;1703;51.964;7.642;2024-01-16T10:40:10;2.00;99.90
3380;DHT22;1703;51.964;7.642;2024-01-16T10:42:37;2.10;99.90
3380;DHT22;1703;51.964;7.642;2024-01-16T10:45:05;2.20;99.90
3380;DHT22;1703;51.964;7.642;2024-01-16T10:47:32;2.30;99.90
3380;DHT22;1703;51.964;7.642;2024-01-16T10:50:03;2.40;99.90
3380;DHT22;1703;51.964;7.642;2024-01-16T10:52:33;2.50;99.90
3380;DHT22;1703;51.964;7.642;2024-01-16T10:55:00;2.40;99.90
3380;DHT22;1703;51.964;7.642;2024-01-16T10:57:31;2.20;99.90
3380;DHT22;1703;51.964;7.642;2024-01-16T11:00:02;2.30;99.90
3380;DHT22;1703;51.964;7.642;2024-01-16T11:02:33;2.30;99.90
3380;DHT22;1703;51.964;7.642;2024-01-16T11:05:02;2.20;99.90
3380;DHT22;1703;51.964;7.642;2024-01-16T11:07:30;2.20;99.90
3380;DHT22;1703;51.964;7.642;2024-01-16T11:09:57;2.10;99.90
3380;DHT22;1703;51.964;7.642;2024-01-16T11:12:25;2.10;99.90
3380;DHT22;1703;51.964;7.642;2024-01-16T11:14:54;2.10;99.90
3380;DHT22;1703;51.964;7.642;2024-01-16T11:17:22;2.10;99.90
3380;DHT22;1703;51.964;7.642;2024-01-16T11:19:49;2.20;99.90
3380;DHT22;1703;51.964;7.642;2024-01-16T11:22:17;2.10;99.90
3380;DHT22;1703;51.964;7.642;2024-01-16T11:24:44;2.10;99.90
3380;DHT22;1703;51.964;7.642;2024-01-16T11:27:22;2.00;99.90
3380;DHT22;1703;51.964;7.642;2024-01-16T11:29:50;2.00;99.90
3380;DHT22;1703;51.964;7.642;2024-01-16T11:32:36;2.10;99.90
3380;DHT22;1703;51.964;7.642;2024-01-16T11:35:03;2.00;99.90
3380;DHT22;1703;51.964;7.642;2024-01-16T11:37:32;2.00;99.90
3380;DHT22;1703;51.964;7.642;2024-01-16T11:40:24;1.90;99.90
3380;DHT22;1703;51.964;7.642;2024-01-16T11:42:53;1.90;99.90
3380;DHT22;1703;51.964;7.642;2024-01-16T11:45:49;1.80;99.90
3380;DHT22;1703;51.964;7.642;2024-01-16T11:48:20;1.90;99.90
3380;DHT22;1703;51.964;7.642;2024-01-16T11:50:47;1.90;99.90
3380;DHT22;1703;51.964;7.642;2024-01-16T11:53:41;1.90;99.90
3380;DHT22;1703;51.964;7.642;2024-01-16T11:56:20;1.90;99.90
3380;DHT22;1703;51.964;7.642;2024-01-16T11:59:01;1.90;99.90
3380;DHT22;1703;51.964;7.642;2024-01-16T12:01:31;1.90;99.90
3380;DHT22;1703;51.964;7.642;2024-01-16T12:04:08;1.90;99.90
3380;DHT22;1703;51.964;7.642;2024-01-16T12:06:36;2.00;99.90
3380;DHT22;1703;51.964;7.642;2024-01-16T12:09:13;1.90;99.90
3380;DHT22;1703;51.964;7.642;2024-01-16T12:11:40;2.00;99.90
3380;DHT22;1703;51.964;7.642;2024-01-16T12:14:09;2.00;99.90
3380;DHT22;1703;51.964;7.642;2024-01-16T12:16:36;2.10;99.90
3380;DHT22;1703;51.964;7.642;2024-01-16T12:19:07;2.20;99.90
3380;DHT22;1703;51.964;7.642;2024-01-16T12:21:35;2.20;99.90
3380;DHT22;1703;51.964;7.642;2024-01-16T12:24:05;2.30;99.90
3380;DHT22;1703;51.964;7.642;2024-01-16T12:26:33;2.40;99.90
3380;DHT22;1703;51.964;7.642;2024-01-16T12:29:00;2.50;99.90
3380;DHT22;1703;51.964;7.642;2024-01-16T12:31:27;2.60;99.90
3380;DHT22;1703;51.964;7.642;2024-01-16T12:34:04;2.60;99.90
3380;DHT22;1703;51.964;7.642;2024-01-16T12:36:34;2.60;99.90
3380;DHT22;1703;51.964;7.642;2024-01-16T12:39:01;2.60;99.90
3380;DHT22;1703;51.964;7.642;2024-01-16T12:41:31;2.60;99.90
3380;DHT22;1703;51.964;7.642;2024-01-16T12:43:59;2.70;99.90
3380;DHT22;1703;51.964;7.642;2024-01-16T12:46:26;2.60;99.90
3380;DHT22;1703;51.964;7.642;2024-01-16T12:48:59;2.60;99.90
3380;DHT22;1703;51.964;7.642;2024-01-16T12:51:26;2.50;99.90
3380;DHT22;1703;51.964;7.642;2024-01-16T12:53:54;2.50;99.90
3380;DHT22;1703;51.964;7.642;2024-01-16T12:56:21;2.50;99.90
3380;DHT22;1703;51.964;7.642;2024-01-16T12:58:48;2.50;99.90
3380;DHT22;1703;51.964;7.642;2024-01-16T13:01:22;2.50;99.90
3380;DHT22;1703;51.964;7.642;2024-01-16T13:03:49;2.50;99.90
3380;DHT22;1703;51.964;7.642;2024-01-16T13:06:17;2.40;99.90
3380;DHT22;1703;51.964;7.642;2024-01-16T13:08:45;2.50;99.90
3380;DHT22;1703;51.964;7.642;2024-01-16T13:11:14;2.50;99.90
3380;DHT22;1703;51.964;7.642;2024-01-16T13:13:45;2.50;99.90
3380;DHT22;1703;51.964;7.642;2024-01-16T13:16:13;2.50;99.90
3380;DHT22;1703;51.964;7.642;2024-01-16T13:18:40;2.60;99.90
3380;DHT22;1703;51.964;7.642;2024-01-16T13:21:07;2.60;99.90
3380;DHT22;1703;51.964;7.642;2024-01-16T13:23:34;2.60;99.90
3380;DHT22;1703;51.964;7.642;2024-01-16T13:26:01;2.80;99.90
3380;DHT22;1703;51.964;7.642;2024-01-16T13:28:31;2.90;99.90
3380;DHT22;1703;51.964;7.642;2024-01-16T13:30:58;2.90;99.90
3380;DHT22;1703;51.964;7.642;2024-01-16T13:33:25;2.90;99.90
3380;DHT22;1703;51.964;7.642;2024-01-16T13:35:53;2.90;99.90
3380;DHT22;1703;51.964;7.642;2024-01-16T13:38:21;2.90;99.90
3380;DHT22;1703;51.964;7.642;2024-01-16T13:40:48;3.00;99.90
3380;DHT22;1703;51.964;7.642;2024-01-16T13:43:15;3.00;99.90
3380;DHT22;1703;51.964;7.642;2024-01-16T13:45:44;2.90;99.90
3380;DHT22;1703;51.964;7.642;2024-01-16T13:48:15;2.90;99.90
3380;DHT22;1703;51.964;7.642;2024-01-16T13:50:41;2.90;99.90
3380;DHT22;1703;51.964;7.642;2024-01-16T13:53:10;2.90;99.90
3380;DHT22;1703;51.964;7.642;2024-01-16T13:55:38;3.00;99.90
3380;DHT22;1703;51.964;7.642;2024-01-16T13:58:06;3.00;99.90
3380;DHT22;1703;51.964;7.642;2024-01-16T14:00:33;3.00;99.90
3380;DHT22;1703;51.964;7.642;2024-01-16T14:03:02;3.00;99.90
3380;DHT22;1703;51.964;7.642;2024-01-16T14:05:31;3.10;99.90
3380;DHT22;1703;51.964;7.642;2024-01-16T14:07:57;3.00;99.90
3380;DHT22;1703;51.964;7.642;2024-01-16T14:10:24;3.00;99.90
3380;DHT22;1703;51.964;7.642;2024-01-16T14:12:51;3.00;99.90
3380;DHT22;1703;51.964;7.642;2024-01-16T14:15:19;3.00;99.90
3380;DHT22;1703;51.964;7.642;2024-01-16T14:17:50;2.90;99.90
3380;DHT22;1703;51.964;7.642;2024-01-16T14:20:19;2.90;99.90
3380;DHT22;1703;51.964;7.642;2024-01-16T14:22:49;2.90;99.90
3380;DHT22;1703;51.964;7.642;2024-01-16T14:25:16;2.90;99.90
3380;DHT22;1703;51.964;7.642;2024-01-16T14:27:47;2.80;99.90
3380;DHT22;1703;51.964;7.642;2024-01-16T14:30:15;2.80;99.90
3380;DHT22;1703;51.964;7.642;2024-01-16T14:32:44;2.70;99.90
3380;DHT22;1703;51.964;7.642;2024-01-16T14:35:12;2.60;99.90
3380;DHT22;1703;51.964;7.642;2024-01-16T14:37:41;2.60;99.90
3380;DHT22;1703;51.964;7.642;2024-01-16T14:40:08;2.60;99.90
3380;DHT22;1703;51.964;7.642;2024-01-16T14:42:38;2.60;99.90
3380;DHT22;1703;51.964;7.642;2024-01-16T14:45:06;2.60;99.90
3380;DHT22;1703;51.964;7.642;2024-01-16T14:47:33;2.60;99.90
3380;DHT22;1703;51.964;7.642;2024-01-16T14:50:00;2.60;99.90
3380;DHT22;1703;51.964;7.642;2024-01-16T14:52:29;2.70;99.90
3380;DHT22;1703;51.964;7.642;2024-01-16T14:54:58;2.70;99.90
3380;DHT22;1703;51.964;7.642;2024-01-16T14:57:25;2.70;99.90
3380;DHT22;1703;51.964;7.642;2024-01-16T14:59:52;2.70;99.90
3380;DHT22;1703;51.964;7.642;2024-01-16T15:02:19;2.80;99.90
3380;DHT22;1703;51.964;7.642;2024-01-16T15:04:46;2.80;99.90
3380;DHT22;1703;51.964;7.642;2024-01-16T15:07:14;2.70;99.90
3380;DHT22;1703;51.964;7.642;2024-01-16T15:09:41;2.70;99.90
3380;DHT22;1703;51.964;7.642;2024-01-16T15:12:09;2.70;99.90
3380;DHT22;1703;51.964;7.642;2024-01-16T15:14:36;2.60;99.90
3380;DHT22;1703;51.964;7.642;2024-01-16T15:17:03;2.60;99.90
3380;DHT22;1703;51.964;7.642;2024-01-16T15:19:30;2.60;99.90
3380;DHT22;1703;51.964;7.642;2024-01-16T15:21:57;2.60;99.90
3380;DHT22;1703;51.964;7.642;2024-01-16T15:24:24;2.60;99.90
3380;DHT22;1703;51.964;7.642;2024-01-16T15:26:54;2.50;99.90
3380;DHT22;1703;51.964;7.642;2024-01-16T15:29:22;2.40;99.90
3380;DHT22;1703;51.964;7.642;2024-01-16T15:31:49;2.40;99.90
3380;DHT22;1703;51.964;7.642;2024-01-16T15:34:17;2.40;99.90
3380;DHT22;1703;51.964;7.642;2024-01-16T15:36:44;2.40;99.90
3380;DHT22;1703;51.964;7.642;2024-01-16T15:39:12;2.40;99.90
3380;DHT22;1703;51.964;7.642;2024-01-16T15:41:41;2.30;99.90
3380;DHT22;1703;51.964;7.642;2024-01-16T15:44:08;2.20;99.90
3380;DHT22;1703;51.964;7.642;2024-01-16T15:46:53;2.10;99.90
3380;DHT22;1703;51.964;7.642;2024-01-16T15:49:20;2.00;99.90
3380;DHT22;1703;51.964;7.642;2024-01-16T15:51:47;2.00;99.90
3380;DHT22;1703;51.964;7.642;2024-01-16T15:54:14;2.10;99.90
3380;DHT22;1703;51.964;7.642;2024-01-16T15:56:42;2.10;99.90
3380;DHT22;1703;51.964;7.642;2024-01-16T15:59:08;2.00;99.90
3380;DHT22;1703;51.964;7.642;2024-01-16T16:01:38;2.10;99.90
3380;DHT22;1703;51.964;7.642;2024-01-16T16:04:06;2.10;99.90
3380;DHT22;1703;51.964;7.642;2024-01-16T16:06:34;2.10;99.90
3380;DHT22;1703;51.964;7.642;2024-01-16T16:09:01;2.20;99.90
3380;DHT22;1703;51.964;7.642;2024-01-16T16:11:28;2.20;99.90
3380;DHT22;1703;51.964;7.642;2024-01-16T16:13:55;2.20;99.90
3380;DHT22;1703;51.964;7.642;2024-01-16T16:16:22;2.20;99.90
3380;DHT22;1703;51.964;7.642;2024-01-16T16:18:50;2.20;99.90
3380;DHT22;1703;51.964;7.642;2024-01-16T16:21:17;2.30;99.90